Time;durP1;ratioP1;P1;durP2;ratioP2;P2;SDS_P1;SDS_P2;PMS_P1;PMS_P2;Temp;Humidity;BMP_temperature;BMP_pressure;BME280_temperature;BME280_humidity;BME280_pressure;Samples;Min_cycle;Max_cycle;Signal;HPM_P1;HPM_P2
2021/09/06 00:02:23;;;;;;;30.53;20.10;;;14.20;99.90;;;;;;5055682;28;20217;-61
2021/09/06 00:04:49;;;;;;;32.70;20.90;;;14.10;99.90;;;;;;5055714;28;20226;-61
2021/09/06 00:07:17;;;;;;;32.90;21.17;;;14.10;99.90;;;;;;5055620;28;20205;-61
2021/09/06 00:09:49;;;;;;;30.43;20.03;;;14.10;1.00;;;;;;5055346;28;20279;-61
2021/09/06 00:12:15;;;;;;;31.63;20.77;;;14.10;1.00;;;;;;5055635;28;20206;-61
2021/09/06 00:14:42;;;;;;;31.20;21.63;;;14.00;1.00;;;;;;5055298;28;20271;-61
2021/09/06 00:17:08;;;;;;;33.73;21.73;;;13.90;99.90;;;;;;5055597;28;20240;-61
2021/09/06 00:19:35;;;;;;;30.37;21.60;;;13.90;1.00;;;;;;5055266;28;20225;-61
2021/09/06 00:22:02;;;;;;;29.70;21.00;;;13.90;98.20;;;;;;5055253;28;20259;-61
2021/09/06 00:24:29;;;;;;;29.80;20.00;;;13.90;99.90;;;;;;5055377;28;20237;-61
2021/09/06 00:26:56;;;;;;;28.67;21.10;;;13.90;99.90;;;;;;5055425;28;20617;-61
2021/09/06 00:29:23;;;;;;;31.50;20.60;;;13.90;99.90;;;;;;5055266;28;20197;-61
2021/09/06 00:31:50;;;;;;;29.83;19.80;;;13.90;99.90;;;;;;5055409;28;20547;-61
2021/09/06 00:34:16;;;;;;;27.33;19.57;;;13.90;99.90;;;;;;5054841;28;20229;-61
2021/09/06 00:36:43;;;;;;;28.53;20.47;;;13.90;99.90;;;;;;5054973;28;20775;-61
2021/09/06 00:39:09;;;;;;;29.97;20.57;;;13.90;99.90;;;;;;5055146;28;20205;-61
2021/09/06 00:41:37;;;;;;;30.70;20.63;;;13.90;1.00;;;;;;5054870;28;20724;-61
2021/09/06 00:44:05;;;;;;;31.90;21.10;;;13.90;1.00;;;;;;5054833;28;20229;-61
2021/09/06 00:46:31;;;;;;;30.60;20.03;;;13.80;1.00;;;;;;5054768;28;20740;-61
2021/09/06 00:48:58;;;;;;;33.20;20.70;;;13.90;1.00;;;;;;5054852;28;20615;-61
2021/09/06 00:51:24;;;;;;;30.73;20.53;;;13.90;1.00;;;;;;5054568;28;20217;-61
2021/09/06 00:53:51;;;;;;;30.33;20.53;;;13.90;1.00;;;;;;5054749;28;20647;-61
2021/09/06 00:56:18;;;;;;;29.80;20.50;;;13.80;1.00;;;;;;5054766;28;20266;-61
2021/09/06 00:58:46;;;;;;;27.63;19.77;;;13.80;2.70;;;;;;5055036;28;20209;-61
2021/09/06 01:01:13;;;;;;;30.57;20.37;;;13.80;23.50;;;;;;5054431;28;20226;-61
2021/09/06 01:03:39;;;;;;;26.17;19.57;;;13.80;1.00;;;;;;5054833;28;20229;-61
2021/09/06 01:06:06;;;;;;;27.97;20.30;;;13.80;99.90;;;;;;5055575;28;20217;-61
2021/09/06 01:08:32;;;;;;;32.83;20.47;;;13.70;99.90;;;;;;5055530;28;20202;-60
2021/09/06 01:11:01;;;;;;;26.63;18.73;;;13.70;99.90;;;;;;5054303;28;20622;-60
2021/09/06 01:13:27;;;;;;;27.47;19.90;;;13.70;99.90;;;;;;5054922;28;20251;-60
2021/09/06 01:15:55;;;;;;;30.40;19.57;;;13.60;99.90;;;;;;5054635;28;20218;-59
2021/09/06 01:18:22;;;;;;;25.80;19.07;;;13.60;1.00;;;;;;5054382;28;20627;-59
2021/09/06 01:20:48;;;;;;;32.73;21.00;;;13.50;1.00;;;;;;5054576;28;20251;-61
2021/09/06 01:23:15;;;;;;;30.30;19.53;;;13.50;39.80;;;;;;5054584;28;20225;-62
2021/09/06 01:25:42;;;;;;;30.80;19.60;;;13.40;99.90;;;;;;5054400;28;20628;-63
2021/09/06 01:28:10;;;;;;;28.77;20.10;;;13.40;99.90;;;;;;5054507;28;20205;-63
2021/09/06 01:30:37;;;;;;;28.17;20.13;;;13.30;99.90;;;;;;5054105;28;20259;-61
2021/09/06 01:33:04;;;;;;;32.40;19.80;;;13.30;99.90;;;;;;5053690;28;20261;-60
2021/09/06 01:35:30;;;;;;;30.73;20.90;;;13.20;99.90;;;;;;5054049;28;20212;-61
2021/09/06 01:37:57;;;;;;;29.60;19.90;;;13.20;99.90;;;;;;5053773;28;20233;-61
2021/09/06 01:40:25;;;;;;;32.00;19.37;;;13.20;99.90;;;;;;5053703;28;20771;-61
2021/09/06 01:42:52;;;;;;;31.47;19.97;;;13.20;99.90;;;;;;5053813;28;20229;-61
2021/09/06 01:45:20;;;;;;;30.00;20.17;;;13.10;99.90;;;;;;5053564;28;20255;-62
2021/09/06 01:47:47;;;;;;;30.77;20.67;;;13.10;1.00;;;;;;5053961;28;20208;-61
2021/09/06 01:50:13;;;;;;;31.73;20.53;;;13.10;1.00;;;;;;5053768;28;20208;-61
2021/09/06 01:52:40;;;;;;;34.47;20.67;;;13.10;94.50;;;;;;5053851;28;20236;-61
2021/09/06 01:55:07;;;;;;;33.23;21.43;;;13.10;99.90;;;;;;5053392;28;20203;-61
2021/09/06 01:57:34;;;;;;;31.40;20.70;;;13.00;99.90;;;;;;5053549;28;20208;-61
2021/09/06 02:00:01;;;;;;;28.97;20.70;;;13.00;99.90;;;;;;5053235;28;20762;-62
2021/09/06 02:02:29;;;;;;;31.73;19.60;;;13.00;99.90;;;;;;5053635;28;20213;-63
2021/09/06 02:04:55;;;;;;;31.83;21.67;;;13.10;99.90;;;;;;5053259;28;20321;-63
2021/09/06 02:07:22;;;;;;;32.40;20.43;;;13.10;99.90;;;;;;5053533;28;20217;-61
2021/09/06 02:09:48;;;;;;;33.77;21.87;;;13.00;99.90;;;;;;5053250;28;20262;-62
2021/09/06 02:12:15;;;;;;;31.50;21.37;;;13.00;99.90;;;;;;5053249;28;20806;-61
2021/09/06 02:14:42;;;;;;;32.67;20.73;;;12.90;99.90;;;;;;5052881;28;20229;-61
2021/09/06 02:17:08;;;;;;;30.60;20.97;;;12.90;99.90;;;;;;5053013;28;20617;-61
2021/09/06 02:19:37;;;;;;;34.33;20.27;;;12.90;99.90;;;;;;5053001;28;20682;-61
2021/09/06 02:22:04;;;;;;;29.03;19.33;;;13.00;1.00;;;;;;5052513;28;20227;-61
2021/09/06 02:24:31;;;;;;;31.73;20.47;;;13.00;1.00;;;;;;5053069;28;20232;-61
2021/09/06 02:26:57;;;;;;;29.60;19.30;;;12.90;1.00;;;;;;5052892;28;20217;-61
2021/09/06 02:29:24;;;;;;;28.87;20.63;;;12.90;1.00;;;;;;5052864;28;20342;-61
2021/09/06 02:31:51;;;;;;;31.33;20.97;;;12.90;1.00;;;;;;5052959;28;20288;-61
2021/09/06 02:34:17;;;;;;;28.40;19.43;;;12.90;1.00;;;;;;5052880;28;20271;-61
2021/09/06 02:36:45;;;;;;;33.20;19.53;;;12.80;1.00;;;;;;5052683;28;20274;-61
2021/09/06 02:39:12;;;;;;;29.87;19.30;;;12.80;1.00;;;;;;5052705;28;20728;-61
2021/09/06 02:41:38;;;;;;;28.97;18.97;;;12.80;1.00;;;;;;5052417;28;20279;-61
2021/09/06 02:44:05;;;;;;;34.50;20.53;;;12.80;1.00;;;;;;5052767;28;20262;-61
2021/09/06 02:46:32;;;;;;;30.80;20.87;;;12.70;1.00;;;;;;5052638;28;20678;-61
2021/09/06 02:48:58;;;;;;;34.50;20.80;;;12.70;1.00;;;;;;5052488;28;20677;-61
2021/09/06 02:51:25;;;;;;;31.77;19.00;;;12.70;1.00;;;;;;5052685;28;20208;-61
2021/09/06 02:53:53;;;;;;;43.30;22.10;;;12.70;1.00;;;;;;5052348;28;20227;-61
2021/09/06 02:56:20;;;;;;;32.37;21.30;;;12.70;1.00;;;;;;5052345;28;20263;-62
2021/09/06 02:58:46;;;;;;;39.57;23.03;;;12.60;1.00;;;;;;5052589;28;20209;-60
2021/09/06 03:01:13;;;;;;;39.47;23.60;;;12.60;1.00;;;;;;5052571;28;20645;-61
2021/09/06 03:03:40;;;;;;;36.63;23.17;;;12.60;1.00;;;;;;5052302;28;20228;-61
2021/09/06 03:06:08;;;;;;;37.17;22.47;;;12.60;1.00;;;;;;5052474;28;20216;-61
2021/09/06 03:08:34;;;;;;;34.03;21.90;;;12.70;1.00;;;;;;5052211;28;20646;-62
2021/09/06 03:11:02;;;;;;;39.47;23.17;;;12.70;1.00;;;;;;5052560;28;20204;-61
2021/09/06 03:13:30;;;;;;;35.27;21.23;;;12.60;1.00;;;;;;5052252;28;20225;-61
2021/09/06 03:15:56;;;;;;;35.57;22.47;;;12.60;1.00;;;;;;5052343;28;20220;-61
2021/09/06 03:18:23;;;;;;;36.37;23.27;;;12.60;1.00;;;;;;5052432;28;20208;-62
2021/09/06 03:20:50;;;;;;;34.20;21.00;;;12.60;1.00;;;;;;5051939;28;20218;-61
2021/09/06 03:23:16;;;;;;;38.17;20.90;;;12.60;1.00;;;;;;5051895;28;20721;-61
2021/09/06 03:25:43;;;;;;;31.83;20.73;;;12.60;1.00;;;;;;5052151;28;20212;-62
2021/09/06 03:28:11;;;;;;;30.63;20.20;;;12.60;1.00;;;;;;5052312;28;20216;-61
2021/09/06 03:30:37;;;;;;;30.70;20.47;;;12.50;1.00;;;;;;5052021;28;20205;-62
2021/09/06 03:33:04;;;;;;;38.37;21.03;;;12.50;1.00;;;;;;5052002;28;20233;-62
2021/09/06 03:35:31;;;;;;;34.43;21.20;;;12.50;1.00;;;;;;5051892;28;20208;-61
2021/09/06 03:37:57;;;;;;;28.73;19.57;;;12.50;1.00;;;;;;5051715;28;20218;-61
2021/09/06 03:40:24;;;;;;;33.63;21.27;;;12.50;1.00;;;;;;5051947;28;20240;-61
2021/09/06 03:42:51;;;;;;;39.30;22.33;;;12.50;1.00;;;;;;5052019;28;20238;-62
2021/09/06 03:45:19;;;;;;;35.03;21.37;;;12.50;1.00;;;;;;5051760;28;20204;-62
2021/09/06 03:47:45;;;;;;;38.63;23.27;;;12.40;1.00;;;;;;5051859;28;20206;-61
2021/09/06 03:50:12;;;;;;;40.17;22.33;;;12.30;1.00;;;;;;5051913;28;20208;-61
2021/09/06 03:52:39;;;;;;;35.30;21.23;;;12.30;1.00;;;;;;5051387;28;20211;-62
2021/09/06 03:55:06;;;;;;;35.17;21.77;;;12.30;1.00;;;;;;5051825;28;20217;-61
2021/09/06 03:57:33;;;;;;;32.83;20.20;;;12.30;1.00;;;;;;5051824;28;20558;-61
2021/09/06 03:59:59;;;;;;;32.50;20.03;;;12.20;1.00;;;;;;5051901;28;20261;-61
2021/09/06 04:02:27;;;;;;;35.13;20.60;;;12.20;1.00;;;;;;5051588;28;20683;-61
2021/09/06 04:04:54;;;;;;;29.30;19.60;;;12.20;1.00;;;;;;5051414;28;20222;-61
2021/09/06 04:07:21;;;;;;;31.20;20.27;;;12.10;1.00;;;;;;5051467;28;20211;-61
2021/09/06 04:09:48;;;;;;;31.47;19.03;;;12.10;1.00;;;;;;5062083;28;20212;-61
2021/09/06 04:12:15;;;;;;;35.97;23.03;;;12.10;1.00;;;;;;5071897;28;20211;-61
2021/09/06 04:14:41;;;;;;;33.73;21.60;;;12.00;1.00;;;;;;5071647;28;20231;-61
2021/09/06 04:17:08;;;;;;;34.30;21.50;;;12.00;1.00;;;;;;5071896;28;20258;-61
2021/09/06 04:19:36;;;;;;;32.30;21.70;;;12.00;1.00;;;;;;5071558;28;20243;-61
2021/09/06 04:22:04;;;;;;;34.07;20.93;;;12.00;1.00;;;;;;5071765;28;20260;-61
2021/09/06 04:24:31;;;;;;;32.87;21.37;;;12.00;1.00;;;;;;5068764;28;20277;-61
2021/09/06 04:26:59;;;;;;;37.00;21.83;;;12.00;1.00;;;;;;5071340;28;20626;-60
2021/09/06 04:29:26;;;;;;;38.97;23.87;;;12.00;1.00;;;;;;5071310;28;20244;-60
2021/09/06 04:31:53;;;;;;;35.50;23.10;;;12.00;1.00;;;;;;5071458;28;20715;-60
2021/09/06 04:34:19;;;;;;;38.03;23.30;;;12.00;1.00;;;;;;5071159;28;20715;-60
2021/09/06 04:36:48;;;;;;;37.67;24.83;;;12.00;1.00;;;;;;5071537;28;20213;-61
2021/09/06 04:39:14;;;;;;;41.33;24.77;;;12.00;1.00;;;;;;5071524;28;20290;-62
2021/09/06 04:41:41;;;;;;;37.90;23.77;;;12.00;1.00;;;;;;5071557;28;20634;-60
2021/09/06 04:44:08;;;;;;;35.50;22.17;;;12.00;1.00;;;;;;5071396;28;20229;-62
2021/09/06 04:46:34;;;;;;;35.10;21.37;;;12.10;1.00;;;;;;5074995;28;20216;-62
2021/09/06 04:49:01;;;;;;;35.83;23.37;;;12.10;1.00;;;;;;5074820;28;20208;-62
2021/09/06 04:51:27;;;;;;;45.33;26.07;;;12.00;1.00;;;;;;5074832;28;20208;-61
2021/09/06 04:53:56;;;;;;;35.33;22.87;;;12.00;1.00;;;;;;5074516;28;20580;-61
2021/09/06 04:56:23;;;;;;;34.83;21.87;;;12.00;1.00;;;;;;5074672;28;20207;-61
2021/09/06 04:58:50;;;;;;;40.03;22.70;;;12.00;1.00;;;;;;5074700;28;20214;-61
2021/09/06 05:01:17;;;;;;;37.83;22.77;;;11.90;1.00;;;;;;5074062;28;20234;-61
2021/09/06 05:03:43;;;;;;;35.57;22.67;;;11.90;1.00;;;;;;5074552;28;20230;-62
2021/09/06 05:06:10;;;;;;;35.70;21.87;;;11.90;1.00;;;;;;5074281;28;20206;-61
2021/09/06 05:08:37;;;;;;;35.07;21.80;;;11.90;1.00;;;;;;5074717;28;20209;-62
2021/09/06 05:11:04;;;;;;;32.83;21.47;;;11.90;1.00;;;;;;5074333;28;20559;-61
2021/09/06 05:13:31;;;;;;;33.07;20.83;;;11.80;1.00;;;;;;5074094;28;20641;-61
2021/09/06 05:15:58;;;;;;;36.87;22.13;;;11.80;1.00;;;;;;5074400;28;20236;-60
2021/09/06 05:18:25;;;;;;;31.30;20.50;;;11.80;1.00;;;;;;5074861;28;20215;-60
2021/09/06 05:20:51;;;;;;;32.20;21.60;;;11.80;1.00;;;;;;5074226;28;20634;-59
2021/09/06 05:23:18;;;;;;;33.37;21.30;;;11.90;1.00;;;;;;5069663;28;20275;-64
2021/09/06 05:25:45;;;;;;;35.03;22.23;;;11.90;1.00;;;;;;5073554;28;20228;-63
2021/09/06 05:28:13;;;;;;;33.33;22.60;;;11.90;1.00;;;;;;5073967;28;20209;-63
2021/09/06 05:30:39;;;;;;;39.30;24.10;;;12.00;1.00;;;;;;5073852;28;20202;-63
2021/09/06 05:33:06;;;;;;;34.27;21.80;;;12.00;1.00;;;;;;5073492;28;20642;-62
2021/09/06 05:35:33;;;;;;;39.03;22.80;;;12.00;1.00;;;;;;5073646;28;20234;-61
2021/09/06 05:37:59;;;;;;;33.70;21.53;;;12.00;7.30;;;;;;5073331;28;20219;-65
2021/09/06 05:40:26;;;;;;;34.67;22.93;;;12.10;18.90;;;;;;5073751;28;20688;-62
2021/09/06 05:42:52;;;;;;;36.73;22.20;;;12.10;23.30;;;;;;5072994;28;20235;-63
2021/09/06 05:45:20;;;;;;;36.93;23.40;;;12.20;26.70;;;;;;5073135;28;20736;-64
2021/09/06 05:47:47;;;;;;;37.00;23.20;;;12.20;29.70;;;;;;5073697;28;20257;-63
2021/09/06 05:50:17;;;;;;;35.87;23.70;;;12.30;32.50;;;;;;5073395;28;20212;-62
2021/09/06 05:52:44;;;;;;;37.03;23.30;;;12.30;38.60;;;;;;5073234;28;20204;-64
2021/09/06 05:55:11;;;;;;;38.03;22.77;;;12.40;48.30;;;;;;5072906;28;20271;-63
2021/09/06 05:57:38;;;;;;;35.50;21.83;;;12.40;63.80;;;;;;5072892;28;20205;-64
2021/09/06 06:00:06;;;;;;;34.53;22.53;;;12.50;76.80;;;;;;5073347;28;20262;-63
2021/09/06 06:02:34;;;;;;;36.47;21.63;;;12.60;88.80;;;;;;5073055;28;20235;-62
2021/09/06 06:05:01;;;;;;;34.00;22.43;;;12.60;95.80;;;;;;5072737;28;20208;-62
2021/09/06 06:07:27;;;;;;;33.70;22.77;;;12.70;98.70;;;;;;5073019;28;20242;-62
2021/09/06 06:09:54;;;;;;;33.37;21.43;;;12.70;99.90;;;;;;5072840;28;20208;-62
2021/09/06 06:12:20;;;;;;;31.53;21.97;;;12.80;99.90;;;;;;5072803;28;20673;-63
2021/09/06 06:14:48;;;;;;;35.93;23.57;;;12.80;99.90;;;;;;5072430;28;20227;-61
2021/09/06 06:17:14;;;;;;;31.43;22.30;;;12.90;99.90;;;;;;5072776;28;20205;-63
2021/09/06 06:19:42;;;;;;;34.80;21.70;;;13.00;99.90;;;;;;5072741;28;20622;-63
2021/09/06 06:22:09;;;;;;;33.63;22.13;;;13.10;99.90;;;;;;5072528;28;20219;-62
2021/09/06 06:24:36;;;;;;;31.20;22.00;;;13.20;99.90;;;;;;5072376;28;20279;-63
2021/09/06 06:27:03;;;;;;;33.53;21.90;;;13.20;99.90;;;;;;5072925;28;20266;-63
2021/09/06 06:29:29;;;;;;;41.60;26.93;;;13.30;99.90;;;;;;5072716;28;20617;-62
2021/09/06 06:31:56;;;;;;;33.20;24.00;;;13.40;99.90;;;;;;5072498;28;20212;-62
2021/09/06 06:34:23;;;;;;;35.17;22.80;;;13.50;99.90;;;;;;5072031;28;20278;-62
2021/09/06 06:36:51;;;;;;;32.93;22.07;;;13.60;99.90;;;;;;5072577;28;20212;-62
2021/09/06 06:39:18;;;;;;;33.50;22.03;;;13.70;99.90;;;;;;5072015;28;20258;-63
2021/09/06 06:41:46;;;;;;;32.13;22.90;;;13.80;99.90;;;;;;5072336;28;20306;-63
2021/09/06 06:44:13;;;;;;;35.93;22.80;;;13.90;99.90;;;;;;5071791;28;20221;-64
2021/09/06 06:46:39;;;;;;;33.40;22.17;;;14.00;99.90;;;;;;5071671;28;20204;-63
2021/09/06 06:49:06;;;;;;;31.80;21.70;;;14.20;99.90;;;;;;5072368;28;20262;-63
2021/09/06 06:51:34;;;;;;;27.73;20.60;;;14.30;99.90;;;;;;5072199;28;20701;-62
2021/09/06 06:54:03;;;;;;;28.33;20.00;;;14.40;30.00;;;;;;5071482;28;20905;-62
2021/09/06 06:56:29;;;;;;;29.27;21.53;;;14.60;1.00;;;;;;5072420;28;20204;-62
2021/09/06 06:58:56;;;;;;;30.20;20.07;;;14.60;1.00;;;;;;5072044;28;20271;-63
2021/09/06 07:01:23;;;;;;;33.00;20.37;;;14.70;1.00;;;;;;5070979;28;20217;-64
2021/09/06 07:03:49;;;;;;;26.50;19.90;;;14.80;99.90;;;;;;5071630;28;20645;-63
2021/09/06 07:06:16;;;;;;;27.03;20.37;;;14.90;99.90;;;;;;5072045;28;20213;-61
2021/09/06 07:08:43;;;;;;;28.77;18.60;;;15.10;99.90;;;;;;5071530;28;20205;-64
2021/09/06 07:11:11;;;;;;;27.37;19.13;;;15.30;1.00;;;;;;5072243;28;20254;-62
2021/09/06 07:13:37;;;;;;;25.17;19.30;;;15.40;1.00;;;;;;5071468;28;20220;-63
2021/09/06 07:16:04;;;;;;;31.37;20.20;;;15.50;1.00;;;;;;5071838;28;20258;-63
2021/09/06 07:18:31;;;;;;;27.03;19.77;;;15.60;99.90;;;;;;5072050;28;20849;-63
2021/09/06 07:20:58;;;;;;;28.53;18.97;;;15.80;1.00;;;;;;5071680;28;20254;-63
2021/09/06 07:23:24;;;;;;;32.93;19.57;;;15.90;99.90;;;;;;5071460;28;20659;-65
2021/09/06 07:25:51;;;;;;;29.90;18.83;;;16.10;99.90;;;;;;5071936;28;20278;-62
2021/09/06 07:28:19;;;;;;;25.13;18.37;;;16.20;1.00;;;;;;5071554;28;20213;-62
2021/09/06 07:30:46;;;;;;;27.13;18.37;;;16.30;99.90;;;;;;5071793;28;20209;-62
2021/09/06 07:33:12;;;;;;;26.43;18.20;;;16.50;1.00;;;;;;5071247;28;20228;-62
2021/09/06 07:35:39;;;;;;;33.93;18.77;;;16.60;48.30;;;;;;5071322;28;20239;-64
2021/09/06 07:38:06;;;;;;;28.13;18.30;;;16.80;1.00;;;;;;5071395;28;20320;-65
2021/09/06 07:40:32;;;;;;;33.93;17.97;;;17.00;1.00;;;;;;5071386;28;20673;-65
2021/09/06 07:42:59;;;;;;;29.17;17.43;;;17.20;99.90;;;;;;5071222;28;20286;-64
2021/09/06 07:45:27;;;;;;;24.90;16.60;;;17.30;95.20;;;;;;5071350;28;20217;-63
2021/09/06 07:47:54;;;;;;;23.93;16.50;;;17.50;74.90;;;;;;5071388;28;20651;-62
2021/09/06 07:50:21;;;;;;;27.67;17.87;;;17.70;5.80;;;;;;5071165;28;20217;-63
2021/09/06 07:52:47;;;;;;;22.80;16.23;;;17.80;1.00;;;;;;5071380;28;20204;-63
2021/09/06 07:55:14;;;;;;;23.97;16.17;;;17.90;99.90;;;;;;5070950;28;20205;-63
2021/09/06 07:57:41;;;;;;;21.30;15.60;;;18.10;99.90;;;;;;5071408;28;20205;-62
2021/09/06 08:00:09;;;;;;;21.50;15.77;;;18.30;99.90;;;;;;5071418;28;20250;-63
2021/09/06 08:02:47;;;;;;;20.87;14.40;;;18.40;99.90;;;;;;5070871;28;20228;-61
2021/09/06 08:05:14;;;;;;;24.07;16.43;;;18.60;99.90;;;;;;5071191;28;20567;-64
2021/09/06 08:07:41;;;;;;;21.20;15.17;;;18.80;99.90;;;;;;5071241;28;20246;-62
2021/09/06 08:10:08;;;;;;;19.00;15.23;;;18.90;99.90;;;;;;5071121;28;20209;-62
2021/09/06 08:12:36;;;;;;;27.07;16.53;;;18.90;9.50;;;;;;5070945;28;20201;-62
2021/09/06 08:15:04;;;;;;;21.00;15.33;;;19.00;33.10;;;;;;5070740;28;20201;-62
2021/09/06 08:17:31;;;;;;;25.93;15.93;;;19.10;85.90;;;;;;5071206;28;20941;-64
2021/09/06 08:19:59;;;;;;;23.83;15.70;;;19.20;9.70;;;;;;5072835;28;20231;-66
2021/09/06 08:22:25;;;;;;;23.63;15.07;;;19.30;1.00;;;;;;5073542;28;20354;-63
2021/09/06 08:24:52;;;;;;;23.43;14.93;;;19.40;1.00;;;;;;5074603;28;20225;-65
2021/09/06 08:27:21;;;;;;;24.17;15.40;;;19.50;1.00;;;;;;5074799;28;20208;-64
2021/09/06 08:29:48;;;;;;;20.30;14.20;;;19.60;1.00;;;;;;5074619;28;20208;-62
2021/09/06 08:32:14;;;;;;;20.00;13.20;;;19.60;1.00;;;;;;5074967;28;20208;-60
2021/09/06 08:34:41;;;;;;;18.23;13.50;;;19.60;1.00;;;;;;5074553;28;20302;-62
2021/09/06 08:37:09;;;;;;;25.70;18.97;;;19.70;1.00;;;;;;5074729;28;20270;-63
2021/09/06 08:39:37;;;;;;;22.23;14.93;;;19.80;1.00;;;;;;5074646;28;20292;-64
2021/09/06 08:42:04;;;;;;;19.13;12.23;;;19.80;1.00;;;;;;5074377;28;20266;-63
2021/09/06 08:44:31;;;;;;;21.53;12.73;;;19.90;1.00;;;;;;5073899;28;20910;-64
2021/09/06 08:46:59;;;;;;;17.63;11.93;;;20.00;1.00;;;;;;5074378;28;20581;-64
2021/09/06 08:49:25;;;;;;;19.77;11.60;;;20.20;1.00;;;;;;5074571;28;20708;-63
2021/09/06 08:51:52;;;;;;;17.83;11.37;;;20.30;1.00;;;;;;5074946;28;20204;-64
2021/09/06 08:54:20;;;;;;;18.83;11.77;;;20.40;1.00;;;;;;5073937;28;20225;-63
2021/09/06 08:56:48;;;;;;;17.70;12.03;;;20.50;1.00;;;;;;5074363;28;20205;-63
2021/09/06 08:59:17;;;;;;;15.83;12.17;;;20.70;1.00;;;;;;5074393;28;20205;-64
2021/09/06 09:01:45;;;;;;;19.43;12.67;;;20.80;1.00;;;;;;5074249;28;20205;-64
2021/09/06 09:04:19;;;;;;;15.87;11.23;;;20.80;99.90;;;;;;5073924;28;20280;-65
2021/09/06 09:06:49;;;;;;;16.63;12.03;;;20.90;99.90;;;;;;5074152;28;20234;-65
2021/09/06 09:09:25;;;;;;;19.30;11.43;;;21.00;99.90;;;;;;5074135;28;20208;-65
2021/09/06 09:12:10;;;;;;;19.00;13.27;;;21.00;99.90;;;;;;5074317;28;20266;-65
2021/09/06 09:14:40;;;;;;;20.73;12.40;;;21.10;99.90;;;;;;5073530;28;20220;-65
2021/09/06 09:17:07;;;;;;;18.33;12.60;;;21.10;99.90;;;;;;5073897;28;20262;-65
2021/09/06 09:19:33;;;;;;;17.93;12.10;;;21.20;99.90;;;;;;5073822;28;20205;-64
2021/09/06 09:22:02;;;;;;;16.90;12.57;;;21.20;99.90;;;;;;5073885;28;20205;-64
2021/09/06 09:24:30;;;;;;;17.33;12.30;;;21.30;99.90;;;;;;5073436;28;20641;-65
2021/09/06 09:26:58;;;;;;;17.97;12.53;;;21.40;99.90;;;;;;5073681;28;20255;-63
2021/09/06 09:29:25;;;;;;;17.97;12.50;;;21.40;99.90;;;;;;5074159;28;20230;-64
2021/09/06 09:31:53;;;;;;;17.33;12.57;;;21.40;99.90;;;;;;5074069;28;20259;-64
2021/09/06 09:34:20;;;;;;;16.30;12.03;;;21.40;99.90;;;;;;5073849;28;20228;-62
2021/09/06 09:36:48;;;;;;;16.90;12.17;;;21.30;99.90;;;;;;5073638;28;20242;-61
2021/09/06 09:39:16;;;;;;;18.70;12.83;;;21.30;99.90;;;;;;5073682;28;20239;-62
2021/09/06 09:41:45;;;;;;;20.47;12.77;;;21.40;99.90;;;;;;5073814;28;20239;-63
2021/09/06 09:44:16;;;;;;;18.83;12.80;;;21.50;99.90;;;;;;5072836;28;20233;-63
2021/09/06 09:46:53;;;;;;;18.80;12.80;;;21.50;99.90;;;;;;5073337;28;20212;-62
2021/09/06 09:49:20;;;;;;;20.77;14.43;;;21.60;99.90;;;;;;5073287;28;20678;-63
2021/09/06 09:51:46;;;;;;;20.87;15.10;;;21.80;99.90;;;;;;5073476;28;20208;-63
2021/09/06 09:54:14;;;;;;;17.13;11.67;;;21.90;99.90;;;;;;5072838;28;20225;-62
2021/09/06 09:56:43;;;;;;;17.67;12.77;;;22.10;99.90;;;;;;5072907;28;20205;-63
2021/09/06 09:59:10;;;;;;;20.33;13.03;;;22.10;99.90;;;;;;5073437;28;20208;-62
2021/09/06 10:01:40;;;;;;;20.23;13.37;;;22.20;99.90;;;;;;5073458;28;20630;-62
2021/09/06 10:04:09;;;;;;;18.33;12.67;;;22.30;99.90;;;;;;5072770;28;20278;-63
2021/09/06 10:06:37;;;;;;;23.93;13.30;;;22.40;99.90;;;;;;5072885;28;20333;-62
2021/09/06 10:09:05;;;;;;;19.60;12.70;;;22.40;99.90;;;;;;5072906;28;20666;-63
2021/09/06 10:11:37;;;;;;;20.57;13.20;;;22.40;99.90;;;;;;5072664;28;20209;-62
2021/09/06 10:14:20;;;;;;;22.07;14.00;;;22.60;99.90;;;;;;5072005;28;20624;-63
2021/09/06 10:17:02;;;;;;;17.20;13.10;;;22.50;99.90;;;;;;5072749;28;20631;-64
2021/09/06 10:19:39;;;;;;;22.47;14.30;;;22.30;99.90;;;;;;5072958;28;20235;-63
2021/09/06 10:22:06;;;;;;;20.17;13.07;;;22.30;99.90;;;;;;5072495;28;20211;-64
2021/09/06 10:24:32;;;;;;;21.33;13.90;;;22.30;99.90;;;;;;5071968;28;20366;-65
2021/09/06 10:27:05;;;;;;;21.33;14.77;;;22.50;99.90;;;;;;5072628;28;20212;-64
2021/09/06 10:29:33;;;;;;;19.67;13.97;;;22.40;99.90;;;;;;5072665;28;20215;-63
2021/09/06 10:32:01;;;;;;;20.03;13.67;;;22.50;99.90;;;;;;5072692;28;20258;-63
2021/09/06 10:34:29;;;;;;;20.50;14.47;;;22.60;99.90;;;;;;5071851;28;20225;-63
2021/09/06 10:37:02;;;;;;;19.37;13.40;;;22.70;99.90;;;;;;5072200;28;20209;-63
2021/09/06 10:39:29;;;;;;;19.57;14.13;;;22.80;99.90;;;;;;5072415;28;20201;-64
2021/09/06 10:42:04;;;;;;;20.90;14.77;;;22.90;99.90;;;;;;5071907;28;20258;-64
2021/09/06 10:44:37;;;;;;;17.77;13.50;;;22.90;99.90;;;;;;5071725;28;20721;-62
2021/09/06 10:47:10;;;;;;;17.00;12.73;;;23.00;99.90;;;;;;5072605;28;20254;-62
2021/09/06 10:49:41;;;;;;;17.57;13.23;;;23.10;99.90;;;;;;5072234;28;20201;-63
2021/09/06 10:52:08;;;;;;;16.87;13.33;;;22.90;99.90;;;;;;5072427;28;20266;-62
2021/09/06 10:54:36;;;;;;;17.10;13.00;;;22.90;99.90;;;;;;5071693;28;20772;-62
2021/09/06 10:57:05;;;;;;;16.47;12.07;;;22.90;99.90;;;;;;5072242;28;20232;-62
2021/09/06 10:59:31;;;;;;;17.80;12.50;;;23.10;99.90;;;;;;5072232;28;20201;-63
2021/09/06 11:01:59;;;;;;;19.87;13.50;;;23.20;99.90;;;;;;5071819;28;20685;-62
2021/09/06 11:04:27;;;;;;;20.27;13.40;;;23.20;99.90;;;;;;5071692;28;20291;-64
2021/09/06 11:07:01;;;;;;;17.57;12.43;;;23.30;99.90;;;;;;5072108;28;20204;-61
2021/09/06 11:09:28;;;;;;;18.20;13.33;;;23.50;99.90;;;;;;5072035;28;20204;-62
2021/09/06 11:12:03;;;;;;;17.43;13.53;;;23.50;99.90;;;;;;5071934;28;20270;-63
2021/09/06 11:14:35;;;;;;;18.87;12.40;;;23.70;99.90;;;;;;5071186;28;20224;-60
2021/09/06 11:17:14;;;;;;;19.10;13.43;;;23.80;99.90;;;;;;5072064;28;20782;-61
2021/09/06 11:19:40;;;;;;;16.83;12.53;;;23.80;99.90;;;;;;5072346;28;20278;-62
2021/09/06 11:22:07;;;;;;;18.60;12.90;;;23.90;99.90;;;;;;5071806;28;20255;-64
2021/09/06 11:24:34;;;;;;;14.43;11.00;;;23.70;99.90;;;;;;5071214;28;20258;-64
2021/09/06 11:27:00;;;;;;;15.90;10.53;;;23.60;99.90;;;;;;5072063;28;20216;-63
2021/09/06 11:29:29;;;;;;;17.27;11.07;;;23.50;99.90;;;;;;5071769;28;20564;-60
2021/09/06 11:31:56;;;;;;;16.33;11.27;;;23.50;99.90;;;;;;5072032;28;20204;-64
2021/09/06 11:34:25;;;;;;;17.10;11.40;;;23.50;99.90;;;;;;5071225;28;20221;-63
2021/09/06 11:36:55;;;;;;;14.70;11.00;;;23.60;99.90;;;;;;5071973;28;20212;-63
2021/09/06 11:39:22;;;;;;;37.90;28.50;;;23.70;99.90;;;;;;5071176;28;20290;-63
2021/09/06 11:41:48;;;;;;;47.47;33.80;;;23.90;99.90;;;;;;5071497;28;20258;-64
2021/09/06 11:44:15;;;;;;;17.90;12.37;;;24.00;99.90;;;;;;5071381;28;20224;-64
2021/09/06 11:46:43;;;;;;;15.80;11.43;;;24.00;99.90;;;;;;5071453;28;20200;-65
2021/09/06 11:49:11;;;;;;;18.60;11.73;;;24.10;99.90;;;;;;5071375;28;20208;-62
2021/09/06 11:51:39;;;;;;;15.93;11.40;;;24.20;99.90;;;;;;5071163;28;20716;-62
2021/09/06 11:54:07;;;;;;;18.13;11.57;;;24.30;99.90;;;;;;5072379;28;20285;-64
2021/09/06 11:56:33;;;;;;;16.90;11.77;;;24.40;99.90;;;;;;5075384;28;20565;-64
2021/09/06 11:59:02;;;;;;;16.50;11.70;;;24.40;99.90;;;;;;5075680;28;20250;-63
2021/09/06 12:01:29;;;;;;;15.03;10.87;;;24.30;99.90;;;;;;5075225;28;20200;-64
2021/09/06 12:04:06;;;;;;;15.17;10.33;;;24.00;99.90;;;;;;5074952;28;20576;-62
2021/09/06 12:06:33;;;;;;;15.13;10.67;;;23.90;99.90;;;;;;5074991;28;20219;-62
2021/09/06 12:09:02;;;;;;;15.07;10.67;;;23.80;99.90;;;;;;5075403;28;20205;-64
2021/09/06 12:11:35;;;;;;;15.13;11.57;;;23.60;99.90;;;;;;5075296;28;20200;-63
2021/09/06 12:14:03;;;;;;;16.37;11.57;;;23.70;99.90;;;;;;5074985;28;20312;-63
2021/09/06 12:16:30;;;;;;;15.30;10.90;;;23.80;99.90;;;;;;5075146;28;20205;-62
2021/09/06 12:18:58;;;;;;;19.33;11.13;;;23.70;99.90;;;;;;5074914;28;20866;-63
2021/09/06 12:21:26;;;;;;;16.93;12.77;;;23.80;99.90;;;;;;5075254;28;20205;-62
2021/09/06 12:23:59;;;;;;;19.97;11.97;;;23.80;99.90;;;;;;5074801;28;20290;-65
2021/09/06 12:26:38;;;;;;;17.80;11.63;;;23.90;99.90;;;;;;5075047;28;20205;-63
2021/09/06 12:29:05;;;;;;;18.93;12.80;;;24.00;99.90;;;;;;5075041;28;20358;-63
2021/09/06 12:31:40;;;;;;;17.93;13.00;;;24.00;99.90;;;;;;5075164;28;20266;-63
2021/09/06 12:34:07;;;;;;;16.57;11.90;;;24.00;99.90;;;;;;5074580;28;20217;-63